Cape Hatteras Naval Facility, North Carolina
Current Conditions -  °F | °C
As of 12:51 AM on Friday 19 Dec 2014 (Local Time) from KHSE Reporting Station
Broken Clouds Broken Clouds  
Wind Chill:   Ceiling: 8000
Heat Index:   Visibility: 10mi
Dew Point:   Wind: 0mph
Humidity: 96%   Direction: NA
Pressure: 30.09"   Gusts: NA
Location:  35.2677°N, 75.5426°W
Report Text: KHSE 190551Z AUTO 00000KT 10SM BKN080 02/01 A3009 RMK AO2 SLP187 T00170011 10022 20006 58005 TSNO
Loading
Personal Weather Stations






























Interactive Weather Map New forecast layout! Learn more

10-Day Weather Forecast

Advertisements
Track Severe Weather on mobile